Mesa Verde Natl Park, Colorado
Current Conditions -  °F | °C
As of 2:53 PM on Wednesday 17 Dec 2014 (Local Time) from KCEZ Reporting Station
Light Snow Light Snow  
Wind Chill: -3°   Ceiling: 1300
Heat Index:   Visibility: 2.5mi
Dew Point:   Wind: 8mph
Humidity: 96%   Direction: 290°WNW
Pressure: 29.96"   Gusts: NA
Location:  37.22°N, 108.5°W
Report Text: KCEZ 172153Z AUTO 29007KT 2 1/2SM -SN BR SCT010 BKN013 OVC022 01/01 A2996 RMK AO2 UPB18E20SNE18B20 SLP144 P0001 T00110006
Loading
Personal Weather Stations






























Interactive Weather Map New forecast layout! Learn more

10-Day Weather Forecast

Advertisements
Track Severe Weather on mobile